Time;durP1;ratioP1;P1;durP2;ratioP2;P2;SDS_P1;SDS_P2;PMS_P1;PMS_P2;Temp;Humidity;BMP_temperature;BMP_pressure;BME280_temperature;BME280_humidity;BME280_pressure;Samples;Min_cycle;Max_cycle;Signal;HPM_P1;HPM_P2
2022/02/10 00:21:01;;;;;;;7.00;3.78;;;10.90;99.90;;;;;;4972057;28;20065;-54
2022/02/10 00:34:47;;;;;;;11.98;5.15;;;10.90;99.90;;;;;;4972680;28;20043;-55
2022/02/10 00:37:19;;;;;;;7.22;3.67;;;10.90;99.90;;;;;;4971825;28;20070;-54
2022/02/10 00:40:08;;;;;;;5.50;4.03;;;10.90;99.90;;;;;;4971580;28;20065;-55
2022/02/10 00:42:35;;;;;;;4.50;3.40;;;10.90;99.90;;;;;;4975496;28;20086;-53
2022/02/10 00:45:04;;;;;;;8.90;3.83;;;10.80;99.90;;;;;;4972925;28;20150;-55
2022/02/10 00:47:44;;;;;;;7.47;4.05;;;10.90;99.90;;;;;;4967481;28;20069;-53
2022/02/10 00:50:11;;;;;;;7.80;3.83;;;10.90;99.90;;;;;;4975250;28;20054;-54
2022/02/10 00:52:42;;;;;;;4.97;3.13;;;10.90;99.90;;;;;;4975474;28;20050;-55
2022/02/10 00:55:12;;;;;;;7.32;3.83;;;10.80;99.90;;;;;;4975243;28;20469;-55
2022/02/10 00:57:39;;;;;;;8.27;3.13;;;10.90;99.90;;;;;;4975182;28;20039;-54
2022/02/10 01:00:36;;;;;;;5.82;3.60;;;10.80;99.90;;;;;;4975796;28;20093;-56
2022/02/10 01:29:35;;;;;;;7.37;4.33;;;10.60;99.90;;;;;;4966865;28;20031;-54
2022/02/10 01:30:12;;;;;;;7.75;5.10;;;10.50;99.90;;;;;;4958403;28;20054;-56
2022/02/10 01:32:43;;;;;;;8.50;4.63;;;10.40;99.90;;;;;;4974760;28;20069;-55
2022/02/10 01:35:15;;;;;;;9.93;5.22;;;10.40;99.90;;;;;;4975641;28;20129;-53
2022/02/10 01:37:43;;;;;;;7.07;4.60;;;10.30;99.90;;;;;;4973986;28;20043;-58
2022/02/10 02:05:01;;;;;;;13.13;4.88;;;10.00;99.90;;;;;;4975893;28;20042;-52
2022/02/10 02:07:31;;;;;;;10.32;6.40;;;9.90;99.90;;;;;;4977238;28;20043;-55
2022/02/10 02:09:58;;;;;;;11.65;5.55;;;9.80;99.90;;;;;;4977099;28;20134;-54
2022/02/10 02:12:26;;;;;;;9.30;6.10;;;9.80;99.90;;;;;;4977058;28;20054;-53
2022/02/10 02:14:53;;;;;;;8.38;5.70;;;9.80;99.90;;;;;;4975854;28;20049;-53
2022/02/10 02:17:20;;;;;;;12.43;5.18;;;9.80;99.90;;;;;;4975781;28;20063;-51
2022/02/10 02:19:48;;;;;;;17.30;7.72;;;9.80;99.90;;;;;;4975613;28;20134;-53
2022/02/10 02:22:18;;;;;;;9.15;5.45;;;9.80;99.90;;;;;;4975801;28;20476;-52
2022/02/10 02:24:47;;;;;;;14.25;5.78;;;9.70;99.90;;;;;;4975871;28;20059;-52
2022/02/10 02:27:18;;;;;;;11.88;5.75;;;9.70;99.90;;;;;;4976823;28;20043;-52
2022/02/10 02:29:55;;;;;;;8.45;5.05;;;9.70;99.90;;;;;;4977002;28;20457;-54
2022/02/10 02:32:32;;;;;;;7.85;5.05;;;9.70;99.90;;;;;;4976660;28;20461;-51
2022/02/10 02:35:31;;;;;;;8.45;5.43;;;9.70;99.90;;;;;;4976735;28;20086;-54
2022/02/10 02:38:32;;;;;;;9.27;5.63;;;9.80;99.90;;;;;;4976676;28;20043;-53
2022/02/10 03:05:56;;;;;;;6.93;4.57;;;10.00;99.90;;;;;;4975103;28;20121;-55
2022/02/10 03:08:24;;;;;;;7.00;5.30;;;9.90;99.90;;;;;;4976023;28;20049;-51
2022/02/10 03:13:28;;;;;;;8.65;4.50;;;9.90;99.90;;;;;;4975837;28;20381;-56
2022/02/10 03:18:51;;;;;;;6.88;4.30;;;9.70;99.90;;;;;;4974792;28;19925;-52
2022/02/10 04:05:33;;;;;;;5.13;3.75;;;9.90;99.90;;;;;;4975440;28;20095;-55
2022/02/10 04:08:17;;;;;;;9.02;4.30;;;9.90;99.90;;;;;;4989990;28;20449;-53
2022/02/10 04:16:16;;;;;;;6.75;3.38;;;10.00;99.90;;;;;;4974391;28;20038;-53
2022/02/10 04:19:33;;;;;;;6.15;3.20;;;10.00;99.90;;;;;;4974995;28;20039;-55
2022/02/10 04:21:51;;;;;;;4.93;3.20;;;10.00;99.90;;;;;;4974882;28;20134;-53
2022/02/10 04:38:36;;;;;;;5.32;3.65;;;10.10;99.90;;;;;;4973778;28;20054;-52
2022/02/10 05:01:53;;;;;;;8.95;4.10;;;10.10;99.90;;;;;;4974325;28;20047;-54
2022/02/10 05:18:05;;;;;;;14.43;4.38;;;10.10;99.90;;;;;;4974201;28;20443;-55
2022/02/10 05:34:23;;;;;;;8.15;4.25;;;10.00;99.90;;;;;;4975257;28;20039;-52
2022/02/10 05:36:52;;;;;;;9.48;4.97;;;10.00;99.90;;;;;;4968778;28;20142;-56
2022/02/10 05:39:25;;;;;;;8.98;4.75;;;10.00;99.90;;;;;;4974359;28;20042;-53
2022/02/10 05:45:08;;;;;;;7.28;4.60;;;9.90;99.90;;;;;;4974453;28;20097;-55
2022/02/10 05:51:28;;;;;;;8.13;4.38;;;9.90;99.90;;;;;;4977053;28;19932;-55
2022/02/10 06:42:28;;;;;;;12.82;7.32;;;14.20;99.90;;;;;;4975528;28;20061;-56
2022/02/10 06:54:20;;;;;;;10.10;5.72;;;15.50;96.40;;;;;;4976280;28;20047;-53
2022/02/10 07:02:56;;;;;;;18.50;9.00;;;15.80;95.00;;;;;;4976155;28;20394;-55
2022/02/10 07:08:27;;;;;;;21.33;11.23;;;14.90;96.10;;;;;;4976430;28;20098;-55
2022/02/10 07:11:06;;;;;;;26.55;10.88;;;14.40;96.70;;;;;;4958700;28;20061;-53
2022/02/10 07:51:58;;;;;;;6.53;4.45;;;17.00;93.80;;;;;;4975501;28;20082;-57
2022/02/10 07:54:34;;;;;;;13.82;4.90;;;17.20;93.20;;;;;;4975487;28;20513;-54
2022/02/10 07:57:12;;;;;;;5.80;4.32;;;17.20;92.90;;;;;;4975317;28;20050;-57
2022/02/10 08:57:20;;;;;;;12.65;5.35;;;17.30;94.50;;;;;;4974683;28;20453;-55
2022/02/10 09:00:35;;;;;;;9.10;5.20;;;17.40;94.60;;;;;;4973227;28;20059;-57
2022/02/10 09:19:07;;;;;;;;;;;17.70;95.10;;;;;;4978572;28;20054;-54
2022/02/10 09:53:06;;;;;;;8.00;3.10;;;18.20;95.20;;;;;;4977648;28;20293;-56
2022/02/10 10:00:30;;;;;;;4.65;3.00;;;18.40;95.10;;;;;;4976413;28;19929;-56
2022/02/10 10:03:10;;;;;;;6.63;3.58;;;18.50;95.00;;;;;;4992433;28;20043;-54
2022/02/10 10:05:58;;;;;;;8.05;3.28;;;18.30;95.00;;;;;;4976149;28;20042;-60
2022/02/10 10:08:49;;;;;;;8.13;3.17;;;18.40;95.00;;;;;;4966629;28;20062;-58
2022/02/10 10:19:41;;;;;;;;;;;18.20;95.00;;;;;;4974796;28;20062;-57
2022/02/10 10:22:27;;;;;;;8.23;2.90;;;18.30;94.90;;;;;;4964400;28;19948;-58
2022/02/10 10:25:35;;;;;;;5.82;3.03;;;18.40;94.80;;;;;;4963640;28;20039;-58
2022/02/10 10:56:13;;;;;;;9.30;4.00;;;18.40;94.60;;;;;;4973710;28;20050;-59
2022/02/10 10:59:07;;;;;;;9.35;3.30;;;18.30;94.70;;;;;;4974806;28;20080;-61
2022/02/10 11:43:38;;;;;;;5.53;3.17;;;18.60;94.60;;;;;;4972814;28;20441;-58
2022/02/10 12:30:10;;;;;;;5.53;2.88;;;17.90;95.40;;;;;;4961385;28;20390;-59
2022/02/10 13:23:20;;;;;;;5.90;3.40;;;17.50;96.00;;;;;;4971828;28;20489;-57
2022/02/10 14:16:15;;;;;;;5.40;3.47;;;16.20;97.60;;;;;;4965457;28;20130;-58
2022/02/10 14:18:51;;;;;;;7.30;4.47;;;16.20;97.70;;;;;;4974427;28;20078;-59
2022/02/10 14:21:24;;;;;;;5.70;2.60;;;16.20;97.50;;;;;;4976197;28;20117;-58
2022/02/10 14:26:33;;;;;;;5.85;3.17;;;16.20;97.60;;;;;;4974248;28;20039;-60
2022/02/10 14:29:00;;;;;;;5.80;3.25;;;16.20;97.60;;;;;;4974587;28;20049;-58
2022/02/10 14:31:28;;;;;;;7.15;2.78;;;16.20;97.60;;;;;;4970681;28;20043;-58
2022/02/10 14:33:57;;;;;;;7.82;3.28;;;16.20;97.60;;;;;;4968550;28;20058;-58
2022/02/10 14:39:21;;;;;;;5.90;3.55;;;16.10;97.50;;;;;;4973847;28;20446;-58
2022/02/10 15:12:12;;;;;;;5.83;3.80;;;15.70;98.70;;;;;;4974886;28;20038;-58
2022/02/10 15:15:06;;;;;;;7.78;3.88;;;15.60;99.00;;;;;;4972221;28;20394;-59
2022/02/10 15:36:04;;;;;;;8.63;4.30;;;15.20;99.80;;;;;;4973497;28;20035;-59
2022/02/10 16:16:55;;;;;;;10.73;7.97;;;14.70;99.90;;;;;;4981114;28;20134;-61
2022/02/10 16:19:24;;;;;;;11.18;7.70;;;14.60;99.90;;;;;;4973838;28;20486;-61
2022/02/10 16:22:02;;;;;;;14.05;8.00;;;14.60;99.90;;;;;;4973903;28;20086;-61
2022/02/10 16:24:44;;;;;;;11.38;8.52;;;14.60;99.90;;;;;;4973920;28;20046;-61
2022/02/10 16:27:17;;;;;;;16.15;10.27;;;14.60;99.90;;;;;;4975116;28;20079;-61
2022/02/10 16:29:46;;;;;;;15.55;11.65;;;14.50;99.90;;;;;;4974891;28;20046;-61
2022/02/10 16:32:19;;;;;;;11.60;7.85;;;14.50;99.90;;;;;;4973658;28;20047;-61
2022/02/10 16:34:51;;;;;;;10.07;8.40;;;14.50;99.90;;;;;;4974806;28;20062;-61
2022/02/10 16:37:20;;;;;;;11.45;8.15;;;14.40;99.90;;;;;;4974807;28;20134;-61
2022/02/10 16:39:52;;;;;;;12.07;8.20;;;14.40;99.90;;;;;;4974840;28;20585;-62
2022/02/10 16:42:25;;;;;;;17.85;11.88;;;14.40;99.90;;;;;;4973931;28;20078;-61
2022/02/10 16:44:57;;;;;;;17.30;12.18;;;14.30;99.90;;;;;;4973566;28;20097;-61
2022/02/10 16:47:25;;;;;;;21.27;14.63;;;14.30;99.90;;;;;;4973373;28;20489;-61
2022/02/10 16:49:58;;;;;;;22.25;14.70;;;14.30;99.90;;;;;;4973853;28;20055;-61
2022/02/10 16:52:37;;;;;;;21.13;14.13;;;14.20;99.90;;;;;;4974715;28;20106;-61
2022/02/10 17:25:27;;;;;;;21.35;13.15;;;13.70;99.90;;;;;;4978301;28;20047;-61
2022/02/10 17:28:00;;;;;;;17.98;12.90;;;13.70;99.90;;;;;;4961291;28;20047;-61
2022/02/10 17:33:37;;;;;;;63.55;39.92;;;13.70;99.90;;;;;;4978219;28;20070;-61
2022/02/10 17:36:16;;;;;;;61.30;36.70;;;13.60;99.90;;;;;;4976826;28;20047;-61
2022/02/10 17:46:58;;;;;;;44.60;27.38;;;13.50;99.90;;;;;;4960606;28;20047;-61
2022/02/10 17:54:40;;;;;;;27.02;17.83;;;13.50;99.90;;;;;;4977500;28;20556;-61
2022/02/10 17:57:09;;;;;;;22.30;16.77;;;13.40;99.90;;;;;;4976409;28;20111;-61
2022/02/10 17:59:37;;;;;;;41.40;28.33;;;13.40;99.90;;;;;;4976058;28;20402;-61
2022/02/10 18:02:05;;;;;;;73.15;47.95;;;13.20;99.90;;;;;;4960050;28;20445;-61
2022/02/10 18:04:33;;;;;;;65.82;43.08;;;13.10;99.90;;;;;;4977347;28;20039;-61
2022/02/10 18:07:01;;;;;;;73.53;47.53;;;13.00;99.90;;;;;;4976190;28;20058;-61
2022/02/10 18:17:54;;;;;;;39.17;26.17;;;12.90;99.90;;;;;;4973075;28;20043;-61
2022/02/10 18:20:29;;;;;;;31.02;21.75;;;12.90;99.90;;;;;;4976032;28;20079;-61
2022/02/10 18:38:07;;;;;;;40.85;30.77;;;13.00;99.90;;;;;;4944912;28;20047;-61
2022/02/10 19:07:15;;;;;;;26.65;19.15;;;12.00;99.90;;;;;;4976660;28;20039;-60
2022/02/10 19:09:46;;;;;;;33.42;26.48;;;12.00;99.90;;;;;;4976115;28;20089;-61
2022/02/10 19:12:18;;;;;;;32.47;28.38;;;12.10;99.90;;;;;;4976024;28;20042;-60
2022/02/10 19:14:53;;;;;;;35.20;28.00;;;12.10;99.90;;;;;;4976395;28;20046;-60
2022/02/10 19:17:24;;;;;;;36.63;26.42;;;12.10;99.90;;;;;;4976143;28;20051;-60
2022/02/10 19:19:52;;;;;;;33.65;25.77;;;12.20;99.90;;;;;;4958125;28;20062;-60
2022/02/10 19:22:21;;;;;;;36.15;29.25;;;12.20;99.90;;;;;;4974807;28;20081;-60
2022/02/10 19:24:49;;;;;;;48.50;32.60;;;12.30;99.90;;;;;;4975770;28;20050;-60
2022/02/10 19:27:17;;;;;;;45.90;36.35;;;12.30;99.90;;;;;;4976028;28;20494;-60
2022/02/10 19:29:44;;;;;;;44.35;33.53;;;12.30;99.90;;;;;;4974887;28;20046;-60
2022/02/10 19:32:16;;;;;;;45.10;32.15;;;12.30;99.90;;;;;;4958698;28;20497;-60
2022/02/10 19:34:46;;;;;;;45.63;32.58;;;12.30;99.90;;;;;;4974471;28;20580;-61
2022/02/10 19:37:19;;;;;;;39.47;31.15;;;12.30;99.90;;;;;;4975933;28;20046;-60
2022/02/10 19:39:52;;;;;;;43.25;29.70;;;12.30;99.90;;;;;;4974605;28;20066;-61
2022/02/10 19:42:20;;;;;;;39.03;30.60;;;12.30;99.90;;;;;;4974684;28;20074;-61
2022/02/10 19:44:48;;;;;;;40.40;29.40;;;12.30;99.90;;;;;;4971194;28;20046;-61
2022/02/10 19:47:15;;;;;;;37.40;27.23;;;12.30;99.90;;;;;;4974261;28;20039;-61
2022/02/10 19:49:43;;;;;;;40.45;28.33;;;12.30;99.90;;;;;;4973401;28;20043;-60
2022/02/10 19:52:12;;;;;;;42.30;29.42;;;12.30;99.90;;;;;;4972968;28;20042;-61
2022/02/10 19:54:46;;;;;;;38.08;29.40;;;12.30;99.90;;;;;;4973388;28;20051;-61
2022/02/10 19:57:14;;;;;;;40.05;27.45;;;12.30;99.90;;;;;;4963536;28;20070;-60
2022/02/10 19:59:42;;;;;;;38.30;30.10;;;12.30;99.90;;;;;;4971825;28;20050;-61
2022/02/10 20:02:10;;;;;;;44.85;29.95;;;12.30;99.90;;;;;;4972397;28;20047;-61
2022/02/10 20:04:38;;;;;;;36.08;26.35;;;12.30;99.90;;;;;;4964551;28;20151;-60
2022/02/10 20:07:07;;;;;;;35.53;25.95;;;12.30;99.90;;;;;;4955847;28;20126;-60
2022/02/10 20:09:35;;;;;;;37.92;27.30;;;12.30;99.90;;;;;;4954786;28;20090;-60
2022/02/10 20:12:03;;;;;;;39.72;29.33;;;12.30;99.90;;;;;;4954359;29;20497;-60
2022/02/10 20:14:31;;;;;;;69.57;40.10;;;12.30;99.90;;;;;;4955783;29;20051;-60
2022/02/10 20:16:59;;;;;;;58.17;37.85;;;12.20;99.90;;;;;;4954933;29;20054;-60
2022/02/10 20:19:27;;;;;;;65.43;42.50;;;12.20;99.90;;;;;;4923208;29;20043;-60
2022/02/10 20:21:55;;;;;;;66.22;43.35;;;12.20;99.90;;;;;;4955665;28;20039;-60
2022/02/10 20:24:23;;;;;;;70.25;46.22;;;12.20;99.90;;;;;;4955526;28;20129;-60
2022/02/10 20:26:51;;;;;;;81.72;53.60;;;12.20;99.90;;;;;;4955579;28;20044;-60
2022/02/10 20:29:18;;;;;;;69.68;47.70;;;12.20;99.90;;;;;;4954601;29;20047;-60
2022/02/10 20:31:46;;;;;;;62.67;41.42;;;12.20;99.90;;;;;;4954266;29;20058;-60
2022/02/10 20:34:16;;;;;;;58.92;43.08;;;12.10;99.90;;;;;;4969953;28;20503;-60
2022/02/10 20:36:44;;;;;;;61.75;41.00;;;12.10;99.90;;;;;;4955622;28;20086;-60
2022/02/10 20:39:16;;;;;;;59.03;42.22;;;12.20;99.90;;;;;;4955571;29;20050;-60
2022/02/10 20:41:49;;;;;;;76.88;49.10;;;12.10;99.90;;;;;;4938403;29;20146;-60
2022/02/10 20:44:17;;;;;;;86.45;53.50;;;12.10;99.90;;;;;;4954470;28;20099;-60
2022/02/10 20:46:49;;;;;;;86.78;53.38;;;12.10;99.90;;;;;;4954264;29;20383;-60
2022/02/10 20:49:18;;;;;;;91.75;52.83;;;12.10;99.90;;;;;;4931429;28;20453;-60
2022/02/10 20:51:49;;;;;;;97.22;55.72;;;12.10;99.90;;;;;;4969713;28;20043;-60
2022/02/10 20:54:17;;;;;;;60.75;42.70;;;12.10;99.90;;;;;;4973685;28;20039;-61
2022/02/10 20:56:48;;;;;;;46.90;34.65;;;12.10;99.90;;;;;;4972562;28;20549;-61
2022/02/10 20:59:39;;;;;;;35.40;30.60;;;12.10;99.90;;;;;;4976248;28;20043;-60
2022/02/10 21:02:12;;;;;;;34.60;25.52;;;12.00;99.90;;;;;;4972659;28;20051;-61
2022/02/10 21:04:58;;;;;;;36.97;30.25;;;12.00;99.90;;;;;;4977420;28;20057;-61
2022/02/10 21:10:03;;;;;;;36.33;27.92;;;11.80;99.90;;;;;;4969820;28;20489;-61
2022/02/10 21:12:35;;;;;;;39.05;32.33;;;11.80;99.90;;;;;;4975748;28;20097;-61
2022/02/10 21:15:07;;;;;;;41.00;29.08;;;11.80;99.90;;;;;;4976674;28;20181;-60
2022/02/10 21:17:35;;;;;;;35.70;27.58;;;11.70;99.90;;;;;;4976646;28;20030;-60
2022/02/10 21:20:05;;;;;;;36.67;28.23;;;11.70;99.90;;;;;;4975760;28;20516;-60
2022/02/10 21:22:37;;;;;;;37.95;28.58;;;11.60;99.90;;;;;;4975713;28;20051;-61
2022/02/10 21:25:14;;;;;;;30.77;22.95;;;11.60;99.90;;;;;;4974195;28;20043;-61
2022/02/10 21:27:47;;;;;;;34.55;26.27;;;11.50;99.90;;;;;;4976433;28;20071;-60
2022/02/10 21:30:16;;;;;;;35.25;24.25;;;11.50;99.90;;;;;;4976100;28;20043;-61
2022/02/10 21:32:50;;;;;;;30.65;21.90;;;11.50;99.90;;;;;;4965433;28;20452;-60
2022/02/10 21:35:34;;;;;;;32.67;20.80;;;11.50;99.90;;;;;;4973404;28;20047;-61
2022/02/10 21:38:16;;;;;;;26.55;19.98;;;11.50;99.90;;;;;;4970789;28;20047;-60
2022/02/10 21:57:07;;;;;;;35.23;26.60;;;11.40;99.90;;;;;;4971495;28;20043;-61
2022/02/10 22:18:59;;;;;;;28.05;24.80;;;11.30;99.90;;;;;;4975055;28;20058;-60
2022/02/10 22:21:32;;;;;;;29.13;23.70;;;11.20;99.90;;;;;;4974901;28;20437;-60
2022/02/10 22:24:03;;;;;;;29.30;22.08;;;11.20;99.90;;;;;;4974800;28;20031;-60
2022/02/10 22:26:32;;;;;;;29.38;22.70;;;11.20;99.90;;;;;;4974785;28;20043;-60
2022/02/10 22:29:05;;;;;;;37.72;27.02;;;11.20;99.90;;;;;;4975011;28;20410;-60
2022/02/10 22:34:16;;;;;;;43.35;29.48;;;11.20;99.90;;;;;;4967415;28;20038;-60
2022/02/10 22:36:46;;;;;;;18.88;14.73;;;11.20;99.90;;;;;;4973554;28;20034;-60
2022/02/10 22:39:15;;;;;;;14.55;11.10;;;11.20;99.90;;;;;;4969987;28;20058;-60
2022/02/10 22:41:46;;;;;;;20.35;14.25;;;11.20;99.90;;;;;;4987747;28;20137;-60
2022/02/10 22:44:14;;;;;;;20.05;12.95;;;11.10;99.90;;;;;;4975679;28;20489;-60
2022/02/10 22:46:42;;;;;;;13.40;12.00;;;11.10;99.90;;;;;;4974361;28;20109;-61
2022/02/10 22:49:11;;;;;;;13.57;10.07;;;11.00;99.90;;;;;;4973213;28;20062;-60
2022/02/10 22:51:39;;;;;;;14.85;10.55;;;11.00;99.90;;;;;;4970441;28;20047;-60
2022/02/10 22:54:07;;;;;;;16.00;11.43;;;11.00;99.90;;;;;;4988869;28;20047;-60
2022/02/10 22:56:35;;;;;;;14.40;10.65;;;11.00;99.90;;;;;;4973437;28;20046;-60
2022/02/10 22:59:05;;;;;;;19.70;11.30;;;11.00;99.90;;;;;;4973868;28;20530;-60
2022/02/10 23:01:33;;;;;;;10.90;9.23;;;11.00;99.90;;;;;;4974508;28;20054;-61
2022/02/10 23:04:01;;;;;;;17.08;10.65;;;11.00;99.90;;;;;;4982041;28;20049;-60
2022/02/10 23:06:29;;;;;;;13.38;9.45;;;11.00;99.90;;;;;;4968981;28;20045;-60
2022/02/10 23:08:57;;;;;;;11.32;8.60;;;11.00;99.90;;;;;;4973374;28;20449;-60
2022/02/10 23:11:27;;;;;;;21.30;13.15;;;11.00;99.90;;;;;;4973638;28;20047;-60
2022/02/10 23:13:57;;;;;;;16.60;11.48;;;11.00;99.90;;;;;;4974256;28;20039;-60
2022/02/10 23:16:27;;;;;;;15.18;10.65;;;11.00;99.90;;;;;;4973178;28;20053;-60
2022/02/10 23:18:55;;;;;;;12.55;10.15;;;11.00;99.90;;;;;;4961237;28;20086;-60
2022/02/10 23:21:24;;;;;;;11.60;8.25;;;10.90;99.90;;;;;;4973629;28;20051;-60
2022/02/10 23:23:52;;;;;;;11.27;7.07;;;10.80;99.90;;;;;;4973423;28;20513;-61
2022/02/10 23:26:21;;;;;;;11.80;8.15;;;10.70;99.90;;;;;;4972445;28;20097;-60
2022/02/10 23:28:56;;;;;;;12.70;8.07;;;10.80;99.90;;;;;;4972592;28;20047;-61
2022/02/10 23:31:25;;;;;;;9.88;7.15;;;10.70;99.90;;;;;;4974310;28;20093;-60
2022/02/10 23:33:57;;;;;;;11.25;7.82;;;10.70;99.90;;;;;;4972100;28;20035;-60
2022/02/10 23:44:50;;;;;;;15.30;8.00;;;10.80;99.90;;;;;;4966487;28;20058;-61
2022/02/10 23:47:19;;;;;;;12.00;7.95;;;10.80;99.90;;;;;;4974043;28;20054;-60
2022/02/10 23:49:51;;;;;;;12.00;8.18;;;10.70;99.90;;;;;;4972820;28;20039;-60
2022/02/10 23:52:21;;;;;;;11.18;8.05;;;10.60;99.90;;;;;;4973384;28;20046;-60
2022/02/10 23:55:15;;;;;;;10.95;7.78;;;10.60;99.90;;;;;;4973446;28;20042;-60
2022/02/10 23:58:00;;;;;;;10.98;7.88;;;10.50;99.90;;;;;;4974201;28;20504;-60
